createdAt,value
2019-03-20T00:01:09.349Z,100015.27
2019-03-20T00:03:38.500Z,100014.86
2019-03-20T00:06:05.119Z,100016.56
2019-03-20T00:09:26.745Z,100009.73
2019-03-20T00:11:53.256Z,100018.59
2019-03-20T00:14:19.830Z,100003.47
2019-03-20T00:16:46.401Z,100004.52
2019-03-20T00:19:13.281Z,100004.98
2019-03-20T00:21:39.815Z,100003.83
2019-03-20T00:24:06.320Z,100003.89
2019-03-20T00:26:32.906Z,100010.04
2019-03-20T00:28:59.650Z,100002.12
2019-03-20T00:31:38.240Z,100001.50
2019-03-20T00:36:48.574Z,99994.52
2019-03-20T00:39:17.522Z,100004.25
2019-03-20T00:41:44.081Z,100001.34
2019-03-20T00:44:10.628Z,100001.81
2019-03-20T00:46:39.288Z,99996.17
2019-03-20T00:49:13.132Z,100002.55
2019-03-20T00:52:02.869Z,100001.67
2019-03-20T00:54:33.950Z,100002.27
2019-03-20T00:57:01.435Z,100003.91
2019-03-20T00:59:28.035Z,100005.15
2019-03-20T01:01:59.111Z,100000.80
2019-03-20T01:04:50.675Z,99994.55
2019-03-20T01:07:51.753Z,99998.89
2019-03-20T01:10:21.717Z,99993.98
2019-03-20T01:12:54.446Z,99993.06
2019-03-20T01:15:21.495Z,99997.09
2019-03-20T01:17:48.151Z,99986.60
2019-03-20T01:20:15.884Z,99990.37
2019-03-20T01:22:43.854Z,99994.25
2019-03-20T01:25:10.576Z,99994.83
2019-03-20T01:27:37.163Z,99990.42
2019-03-20T01:30:04.348Z,99993.06
2019-03-20T01:32:30.950Z,99991.30
2019-03-20T01:35:03.666Z,99981.06
2019-03-20T01:37:43.552Z,99989.43
2019-03-20T01:40:13.615Z,99984.91
2019-03-20T01:42:49.682Z,99992.58
2019-03-20T01:45:33.419Z,99989.11
2019-03-20T01:48:04.000Z,99996.45
2019-03-20T01:50:33.887Z,100001.30
2019-03-20T01:53:03.652Z,99998.98
2019-03-20T01:55:30.326Z,100000.51
2019-03-20T01:57:57.258Z,100010.23
2019-03-20T02:00:23.881Z,99999.42
2019-03-20T02:02:51.308Z,100008.76
2019-03-20T02:05:34.686Z,100014.25
2019-03-20T02:07:52.452Z,100014.54
2019-03-20T02:10:19.143Z,100018.83
2019-03-20T02:12:45.793Z,100017.73
2019-03-20T02:15:13.906Z,100021.55
2019-03-20T02:17:40.674Z,100022.63
2019-03-20T02:20:09.343Z,100020.73
2019-03-20T02:22:35.904Z,100011.16
2019-03-20T02:25:03.338Z,100009.87
2019-03-20T02:27:29.837Z,100010.12
2019-03-20T02:30:06.436Z,100012.86
2019-03-20T02:32:33.042Z,100010.92
2019-03-20T02:34:59.614Z,100006.44
2019-03-20T02:37:26.547Z,100007.14
2019-03-20T02:39:53.109Z,100007.61
2019-03-20T02:42:19.653Z,100013.05
2019-03-20T02:44:50.863Z,100002.95
2019-03-20T02:47:22.170Z,100003.51
2019-03-20T02:49:48.734Z,100004.86
2019-03-20T02:52:17.892Z,100009.87
2019-03-20T02:54:44.868Z,100013.58
2019-03-20T02:57:17.491Z,100018.41
2019-03-20T02:59:46.142Z,100023.94
2019-03-20T03:02:13.021Z,100030.31
2019-03-20T03:04:39.866Z,100032.55
2019-03-20T03:07:07.677Z,100027.52
2019-03-20T03:09:34.564Z,100028.22
2019-03-20T03:12:01.066Z,100026.24
2019-03-20T03:14:27.591Z,100032.42
2019-03-20T03:16:55.710Z,100025.38
2019-03-20T03:19:22.220Z,100030.20
2019-03-20T03:21:56.103Z,100028.62
2019-03-20T03:24:28.113Z,100029.72
2019-03-20T03:26:57.596Z,100030.94
2019-03-20T03:29:24.538Z,100028.41
2019-03-20T03:31:51.170Z,100032.36
2019-03-20T03:34:22.446Z,100025.55
2019-03-20T03:36:49.340Z,100027.58
2019-03-20T03:39:18.981Z,100026.50
2019-03-20T03:41:48.558Z,100035.48
2019-03-20T03:44:18.543Z,100036.16
2019-03-20T03:49:49.197Z,100041.39
2019-03-20T03:52:22.782Z,100046.45
2019-03-20T03:54:49.790Z,100052.62
2019-03-20T03:57:19.442Z,100049.97
2019-03-20T03:59:46.397Z,100047.09
2019-03-20T04:02:12.898Z,100045.02
2019-03-20T04:04:39.428Z,100046.02
2019-03-20T04:07:06.042Z,100044.37
2019-03-20T04:09:32.612Z,100051.31
2019-03-20T04:11:59.162Z,100052.00
2019-03-20T04:14:25.765Z,100048.88
2019-03-20T04:16:52.516Z,100049.35
2019-03-20T04:19:19.014Z,100048.00
2019-03-20T04:21:45.778Z,100052.34
2019-03-20T04:24:12.346Z,100048.41
2019-03-20T04:26:39.015Z,100044.53
2019-03-20T04:29:05.602Z,100037.59
2019-03-20T04:31:32.229Z,100047.09
2019-03-20T04:33:58.948Z,100053.72
2019-03-20T04:36:26.277Z,100046.98
2019-03-20T04:38:59.055Z,100051.05
2019-03-20T04:41:25.601Z,100054.11
2019-03-20T04:43:57.116Z,100060.56
2019-03-20T04:46:23.681Z,100053.01
2019-03-20T04:48:53.223Z,100052.69
2019-03-20T04:51:26.481Z,100059.46
2019-03-20T04:53:56.214Z,100059.16
2019-03-20T04:56:24.050Z,100065.03
2019-03-20T04:58:51.615Z,100066.95
2019-03-20T05:01:18.224Z,100067.36
2019-03-20T05:03:51.872Z,100071.95
2019-03-20T05:06:18.581Z,100074.28
2019-03-20T05:08:48.536Z,100072.22
2019-03-20T05:11:34.116Z,100080.55
2019-03-20T05:14:01.006Z,100075.11
2019-03-20T05:16:28.495Z,100075.95
2019-03-20T05:18:55.139Z,100072.42
2019-03-20T05:21:28.607Z,100080.23
2019-03-20T05:23:57.290Z,100082.68
2019-03-20T05:26:29.091Z,100081.93
2019-03-20T05:28:56.072Z,100077.23
2019-03-20T05:31:42.836Z,100088.48
2019-03-20T05:34:09.474Z,100083.69
2019-03-20T05:36:36.063Z,100078.63
2019-03-20T05:39:05.291Z,100084.45
2019-03-20T05:41:37.061Z,100096.44
2019-03-20T05:44:03.778Z,100090.95
2019-03-20T05:46:31.548Z,100081.77
2019-03-20T05:48:58.391Z,100090.75
2019-03-20T05:51:27.738Z,100099.32
2019-03-20T05:53:58.175Z,100100.08
2019-03-20T05:56:37.946Z,100101.46
2019-03-20T05:59:09.887Z,100104.45
2019-03-20T06:01:39.559Z,100105.80
2019-03-20T06:04:09.388Z,100108.53
2019-03-20T06:06:35.955Z,100111.24
2019-03-20T06:09:05.704Z,100115.92
2019-03-20T06:11:32.275Z,100121.14
2019-03-20T06:13:59.147Z,100125.98
2019-03-20T06:16:25.691Z,100122.95
2019-03-20T06:18:55.605Z,100121.92
2019-03-20T06:21:22.251Z,100123.19
2019-03-20T06:23:58.155Z,100116.83
2019-03-20T06:26:24.729Z,100128.80
2019-03-20T06:28:55.242Z,100121.24
2019-03-20T06:31:21.808Z,100132.92
2019-03-20T06:33:48.862Z,100130.45
2019-03-20T06:36:18.804Z,100132.06
2019-03-20T06:38:45.390Z,100136.16
2019-03-20T06:41:12.426Z,100135.06
2019-03-20T06:43:39.849Z,100134.58
2019-03-20T06:46:06.691Z,100140.48
2019-03-20T06:48:33.278Z,100142.95
2019-03-20T06:50:59.971Z,100145.48
2019-03-20T06:53:28.760Z,100140.19
2019-03-20T06:55:55.343Z,100142.72
2019-03-20T06:58:24.755Z,100143.80
2019-03-20T07:01:27.652Z,100147.08
2019-03-20T07:04:18.272Z,100143.48
2019-03-20T07:06:52.427Z,100148.86
2019-03-20T07:09:29.719Z,100152.01
2019-03-20T07:11:56.902Z,100145.91
2019-03-20T07:14:23.521Z,100146.34
2019-03-20T07:16:54.510Z,100146.69
2019-03-20T07:19:21.437Z,100143.08
2019-03-20T07:21:52.341Z,100135.93
2019-03-20T07:24:19.357Z,100136.06
2019-03-20T07:26:46.282Z,100141.34
2019-03-20T07:29:12.921Z,100141.48
2019-03-20T07:31:40.108Z,100146.63
2019-03-20T07:34:08.070Z,100146.86
2019-03-20T07:36:35.492Z,100150.13
2019-03-20T07:39:04.101Z,100143.86
2019-03-20T07:41:30.625Z,100153.33
2019-03-20T07:43:57.323Z,100147.16
2019-03-20T07:46:23.925Z,100156.28
2019-03-20T07:48:51.575Z,100162.19
2019-03-20T07:51:18.298Z,100166.23
2019-03-20T07:53:44.839Z,100158.80
2019-03-20T07:56:12.592Z,100160.29
2019-03-20T07:58:39.282Z,100158.34
2019-03-20T08:01:06.381Z,100163.16
2019-03-20T08:03:34.803Z,100167.53
2019-03-20T08:06:02.026Z,100166.37
2019-03-20T08:08:29.691Z,100165.60
2019-03-20T08:10:56.854Z,100170.51
2019-03-20T08:13:23.893Z,100164.79
2019-03-20T08:15:51.245Z,100167.88
2019-03-20T08:18:17.885Z,100164.38
2019-03-20T08:20:44.475Z,100171.39
2019-03-20T08:23:13.466Z,100164.33
2019-03-20T08:25:40.214Z,100172.27
2019-03-20T08:28:06.935Z,100174.84
2019-03-20T08:30:43.118Z,100170.95
2019-03-20T08:33:09.649Z,100170.95
2019-03-20T08:35:44.266Z,100179.30
2019-03-20T08:38:18.140Z,100174.43
2019-03-20T08:40:39.290Z,100175.77
2019-03-20T08:43:05.854Z,100185.89
2019-03-20T08:45:32.495Z,100189.41
2019-03-20T08:48:00.603Z,100187.56
2019-03-20T08:50:27.200Z,100179.63
2019-03-20T08:52:55.134Z,100185.38
2019-03-20T08:55:21.863Z,100182.73
2019-03-20T08:57:48.751Z,100191.42
2019-03-20T09:00:16.159Z,100201.93
2019-03-20T09:02:42.889Z,100199.23
2019-03-20T09:05:09.725Z,100202.59
2019-03-20T09:07:46.696Z,100201.21
2019-03-20T09:10:06.917Z,100206.09
2019-03-20T09:12:33.475Z,100202.08
2019-03-20T09:15:00.169Z,100209.95
2019-03-20T09:17:27.095Z,100204.44
2019-03-20T09:19:54.093Z,100201.45
2019-03-20T09:22:20.619Z,100200.14
2019-03-20T09:24:47.165Z,100207.56
2019-03-20T09:27:14.190Z,100206.20
2019-03-20T09:29:41.276Z,100201.05
2019-03-20T09:32:07.959Z,100213.53
2019-03-20T09:34:34.676Z,100213.25
2019-03-20T09:37:01.435Z,100208.17
2019-03-20T09:39:27.950Z,100216.77
2019-03-20T09:41:54.645Z,100212.80
2019-03-20T09:44:21.391Z,100224.09
2019-03-20T09:46:47.952Z,100216.52
2019-03-20T09:49:14.536Z,100213.75
2019-03-20T09:51:41.139Z,100214.73
2019-03-20T09:54:08.699Z,100221.22
2019-03-20T09:56:35.391Z,100217.69
2019-03-20T09:59:02.023Z,100207.06
2019-03-20T10:01:28.705Z,100208.21
2019-03-20T10:03:55.764Z,100209.34
2019-03-20T10:06:22.736Z,100211.45
2019-03-20T10:08:54.345Z,100201.81
2019-03-20T10:11:20.192Z,100193.50
2019-03-20T10:13:46.904Z,100190.80
2019-03-20T10:16:13.440Z,100194.41
2019-03-20T10:18:40.816Z,100197.08
2019-03-20T10:21:07.526Z,100189.47
2019-03-20T10:23:34.137Z,100191.33
2019-03-20T10:26:01.013Z,100179.67
2019-03-20T10:28:28.053Z,100184.12
2019-03-20T10:30:54.876Z,100177.77
2019-03-20T10:33:24.362Z,100181.96
2019-03-20T10:35:51.074Z,100182.89
2019-03-20T10:38:17.635Z,100183.61
2019-03-20T10:40:44.346Z,100175.52
2019-03-20T10:43:10.888Z,100185.17
2019-03-20T10:45:37.704Z,100188.88
2019-03-20T10:48:07.245Z,100185.69
2019-03-20T10:50:34.080Z,100178.44
2019-03-20T10:53:00.795Z,100173.17
2019-03-20T10:55:52.381Z,100172.95
2019-03-20T10:58:19.398Z,100171.95
2019-03-20T11:00:46.353Z,100176.84
2019-03-20T11:03:14.334Z,100177.00
2019-03-20T11:05:42.289Z,100167.52
2019-03-20T11:08:08.836Z,100167.52
2019-03-20T11:10:36.222Z,100180.94
2019-03-20T11:13:03.247Z,100181.36
2019-03-20T11:15:29.998Z,100180.70
2019-03-20T11:17:56.695Z,100183.98
2019-03-20T11:20:23.421Z,100177.67
2019-03-20T11:22:50.495Z,100178.39
2019-03-20T11:25:19.433Z,100175.28
2019-03-20T11:27:47.404Z,100182.83
2019-03-20T11:30:20.609Z,100168.88
2019-03-20T11:32:47.520Z,100168.88
2019-03-20T11:35:14.221Z,100164.22
2019-03-20T11:37:41.331Z,100164.22
2019-03-20T11:40:10.679Z,100165.69
2019-03-20T11:42:37.609Z,100168.12
2019-03-20T11:45:04.955Z,100168.12
2019-03-20T11:47:31.797Z,100164.28
2019-03-20T11:49:58.578Z,100159.70
2019-03-20T11:52:25.718Z,100163.55
2019-03-20T11:54:52.939Z,100162.08
2019-03-20T11:57:21.632Z,100155.85
2019-03-20T11:59:48.157Z,100160.36
2019-03-20T12:02:15.289Z,100162.04
2019-03-20T12:04:42.126Z,100157.69
2019-03-20T12:07:08.889Z,100154.16
2019-03-20T12:09:41.227Z,100153.85
2019-03-20T12:12:07.723Z,100147.14
2019-03-20T12:14:34.305Z,100148.70
2019-03-20T12:17:01.227Z,100141.51
2019-03-20T12:19:27.929Z,100141.73
2019-03-20T12:21:54.743Z,100137.41
2019-03-20T12:24:21.348Z,100137.12
2019-03-20T12:26:48.206Z,100134.77
2019-03-20T12:29:14.809Z,100144.40
2019-03-20T12:31:41.606Z,100136.92
2019-03-20T12:34:08.251Z,100145.80
2019-03-20T12:36:35.076Z,100142.09
2019-03-20T12:39:01.658Z,100137.38
2019-03-20T12:41:28.326Z,100126.61
2019-03-20T12:43:55.998Z,100127.49
2019-03-20T12:46:22.664Z,100127.49
2019-03-20T12:48:49.325Z,100119.55
2019-03-20T12:51:15.879Z,100113.38
2019-03-20T12:53:43.541Z,100112.66
2019-03-20T12:56:10.109Z,100108.16
2019-03-20T12:58:36.618Z,100113.62
2019-03-20T13:01:04.274Z,100109.70
2019-03-20T13:03:31.009Z,100108.34
2019-03-20T13:05:57.586Z,100104.56
2019-03-20T13:08:24.669Z,100099.88
2019-03-20T13:10:51.298Z,100107.33
2019-03-20T13:13:19.964Z,100105.61
2019-03-20T13:15:46.738Z,100100.20
2019-03-20T13:18:17.434Z,100098.28
2019-03-20T13:20:44.277Z,100097.13
2019-03-20T13:23:12.775Z,100098.67
2019-03-20T13:25:39.558Z,100105.66
2019-03-20T13:28:06.566Z,100110.42
2019-03-20T13:30:36.253Z,100101.34
2019-03-20T13:33:03.409Z,100111.89
2019-03-20T13:35:30.006Z,100107.50
2019-03-20T13:37:56.935Z,100100.37
2019-03-20T13:40:24.417Z,100106.75
2019-03-20T13:42:51.088Z,100099.99
2019-03-20T13:45:17.760Z,100100.67
2019-03-20T13:47:44.473Z,100104.84
2019-03-20T13:50:12.127Z,100096.45
2019-03-20T13:52:40.346Z,100103.27
2019-03-20T13:55:07.436Z,100100.79
2019-03-20T13:57:34.240Z,100097.28
2019-03-20T14:00:01.094Z,100098.95
2019-03-20T14:02:27.730Z,100100.70
2019-03-20T14:04:54.257Z,100110.19
2019-03-20T14:07:21.395Z,100106.51
2019-03-20T14:09:48.142Z,100104.29
2019-03-20T14:12:15.009Z,100111.94
2019-03-20T14:14:41.688Z,100106.75
2019-03-20T14:17:08.451Z,100112.46
2019-03-20T14:19:34.993Z,100118.80
2019-03-20T14:22:01.701Z,100124.84
2019-03-20T14:24:28.372Z,100127.97
2019-03-20T14:26:54.915Z,100119.53
2019-03-20T14:29:21.538Z,100123.11
2019-03-20T14:31:48.622Z,100124.27
2019-03-20T14:34:15.655Z,100126.02
2019-03-20T14:36:42.236Z,100117.69
2019-03-20T14:39:09.523Z,100114.09
2019-03-20T14:41:36.147Z,100118.58
2019-03-20T14:44:02.908Z,100113.78
2019-03-20T14:46:29.493Z,100113.34
2019-03-20T14:48:56.549Z,100125.37
2019-03-20T14:51:23.387Z,100117.58
2019-03-20T14:53:50.054Z,100106.94
2019-03-20T14:56:18.269Z,100100.80
2019-03-20T14:58:45.354Z,100101.20
2019-03-20T15:01:12.465Z,100096.23
2019-03-20T15:03:39.737Z,100102.06
2019-03-20T15:06:06.966Z,100105.09
2019-03-20T15:08:33.676Z,100100.31
2019-03-20T15:11:00.825Z,100095.09
2019-03-20T15:13:28.473Z,100102.66
2019-03-20T15:18:23.793Z,100096.41
2019-03-20T15:20:50.449Z,100097.27
2019-03-20T15:23:17.124Z,100084.06
2019-03-20T15:25:43.918Z,100083.20
2019-03-20T15:28:10.603Z,100084.14
2019-03-20T15:30:37.515Z,100075.35
2019-03-20T15:33:04.842Z,100086.38
2019-03-20T15:35:31.405Z,100085.16
2019-03-20T15:37:58.367Z,100082.55
2019-03-20T15:40:25.063Z,100078.19
2019-03-20T15:42:51.800Z,100076.89
2019-03-20T15:45:18.503Z,100080.50
2019-03-20T15:47:45.395Z,100081.78
2019-03-20T15:50:13.618Z,100076.52
2019-03-20T15:52:40.214Z,100073.47
2019-03-20T15:55:12.943Z,100079.63
2019-03-20T15:57:40.283Z,100077.44
2019-03-20T16:00:12.306Z,100076.11
2019-03-20T16:02:39.187Z,100073.06
2019-03-20T16:05:06.866Z,100077.47
2019-03-20T16:07:34.426Z,100073.95
2019-03-20T16:10:04.332Z,100078.34
2019-03-20T16:12:31.166Z,100078.36
2019-03-20T16:14:57.992Z,100077.92
2019-03-20T16:17:24.711Z,100070.00
2019-03-20T16:19:53.694Z,100072.23
2019-03-20T16:22:20.275Z,100083.19
2019-03-20T16:24:46.825Z,100086.27
2019-03-20T16:27:13.398Z,100082.33
2019-03-20T16:29:41.236Z,100085.41
2019-03-20T16:32:08.081Z,100081.05
2019-03-20T16:34:34.698Z,100085.85
2019-03-20T16:37:01.299Z,100087.17
2019-03-20T16:39:28.116Z,100080.59
2019-03-20T16:41:54.638Z,100082.81
2019-03-20T16:44:21.226Z,100085.86
2019-03-20T16:46:48.311Z,100094.61
2019-03-20T16:49:14.951Z,100085.40
2019-03-20T16:51:41.538Z,100083.64
2019-03-20T16:54:08.506Z,100082.34
2019-03-20T16:56:35.288Z,100087.58
2019-03-20T16:59:01.948Z,100095.44
2019-03-20T17:01:28.629Z,100104.62
2019-03-20T17:03:55.255Z,100102.00
2019-03-20T17:06:23.007Z,100100.22
2019-03-20T17:08:49.676Z,100094.06
2019-03-20T17:11:26.463Z,100091.81
2019-03-20T17:13:46.136Z,100097.47
2019-03-20T17:16:12.677Z,100100.06
2019-03-20T17:18:39.413Z,100103.09
2019-03-20T17:21:06.123Z,100104.80
2019-03-20T17:23:32.717Z,100104.33
2019-03-20T17:25:59.335Z,100108.22
2019-03-20T17:28:25.894Z,100113.84
2019-03-20T17:30:52.679Z,100114.17
2019-03-20T17:33:20.018Z,100116.64
2019-03-20T17:35:46.700Z,100119.55
2019-03-20T17:38:13.407Z,100113.71
2019-03-20T17:40:39.969Z,100120.94
2019-03-20T17:43:06.822Z,100121.70
2019-03-20T17:45:34.173Z,100124.21
2019-03-20T17:48:01.027Z,100133.73
2019-03-20T17:50:29.198Z,100135.42
2019-03-20T17:52:58.404Z,100136.14
2019-03-20T17:55:25.719Z,100137.33
2019-03-20T17:57:52.211Z,100142.78
2019-03-20T18:00:27.420Z,100146.92
2019-03-20T18:02:54.233Z,100145.19
2019-03-20T18:05:21.082Z,100142.37
2019-03-20T18:07:50.325Z,100147.84
2019-03-20T18:10:17.307Z,100145.92
2019-03-20T18:12:43.998Z,100158.80
2019-03-20T18:15:11.080Z,100151.25
2019-03-20T18:17:37.830Z,100148.63
2019-03-20T18:20:05.131Z,100147.75
2019-03-20T18:22:31.576Z,100156.47
2019-03-20T18:24:58.154Z,100157.73
2019-03-20T18:27:24.641Z,100161.55
2019-03-20T18:29:52.602Z,100157.45
2019-03-20T18:32:19.075Z,100158.59
2019-03-20T18:34:45.714Z,100162.55
2019-03-20T18:37:15.309Z,100164.69
2019-03-20T18:39:42.205Z,100166.31
2019-03-20T18:42:09.696Z,100175.27
2019-03-20T18:44:36.375Z,100176.09
2019-03-20T18:47:07.299Z,100182.64
2019-03-20T18:49:33.806Z,100179.70
2019-03-20T18:52:00.812Z,100179.34
2019-03-20T18:54:27.678Z,100186.81
2019-03-20T18:56:54.463Z,100184.22
2019-03-20T18:59:21.376Z,100190.41
2019-03-20T19:01:50.757Z,100192.94
2019-03-20T19:04:17.267Z,100186.36
2019-03-20T19:06:43.806Z,100179.64
2019-03-20T19:09:10.313Z,100186.48
2019-03-20T19:11:38.984Z,100185.14
2019-03-20T19:14:05.853Z,100179.05
2019-03-20T19:16:33.056Z,100186.88
2019-03-20T19:18:59.949Z,100189.51
2019-03-20T19:21:26.624Z,100194.06
2019-03-20T19:23:53.515Z,100202.74
2019-03-20T19:26:20.036Z,100200.25
2019-03-20T19:28:46.886Z,100205.02
2019-03-20T19:31:14.033Z,100202.38
2019-03-20T19:33:42.630Z,100202.59
2019-03-20T19:36:09.201Z,100205.50
2019-03-20T19:38:35.950Z,100206.72
2019-03-20T19:41:02.956Z,100204.84
2019-03-20T19:43:29.458Z,100203.98
2019-03-20T19:45:56.064Z,100201.86
2019-03-20T19:48:22.755Z,100204.20
2019-03-20T19:50:49.343Z,100204.20
2019-03-20T19:53:16.355Z,100204.02
2019-03-20T19:55:42.989Z,100209.75
2019-03-20T19:58:09.575Z,100205.84
2019-03-20T20:00:36.394Z,100202.69
2019-03-20T20:03:03.348Z,100203.08
2019-03-20T20:05:29.952Z,100202.52
2019-03-20T20:07:56.522Z,100209.41
2019-03-20T20:10:23.040Z,100216.38
2019-03-20T20:12:49.729Z,100211.04
2019-03-20T20:15:19.414Z,100211.04
2019-03-20T20:17:46.999Z,100211.77
2019-03-20T20:20:16.327Z,100221.21
2019-03-20T20:22:43.437Z,100223.39
2019-03-20T20:25:10.148Z,100223.52
2019-03-20T20:27:36.796Z,100218.77
2019-03-20T20:30:03.925Z,100220.36
2019-03-20T20:32:35.234Z,100221.60
2019-03-20T20:35:01.891Z,100227.98
2019-03-20T20:37:28.477Z,100222.25
2019-03-20T20:39:55.161Z,100221.44
2019-03-20T20:42:21.778Z,100224.89
2019-03-20T20:44:48.343Z,100219.65
2019-03-20T20:47:14.845Z,100226.16
2019-03-20T20:49:41.719Z,100229.00
2019-03-20T20:52:18.756Z,100227.02
2019-03-20T20:54:36.651Z,100217.89
2019-03-20T20:57:03.608Z,100220.04
2019-03-20T20:59:30.561Z,100217.36
2019-03-20T21:01:57.130Z,100226.75
2019-03-20T21:04:23.685Z,100228.28
2019-03-20T21:06:50.244Z,100227.91
2019-03-20T21:09:16.975Z,100221.06
2019-03-20T21:11:43.509Z,100223.55
2019-03-20T21:14:10.587Z,100218.95
2019-03-20T21:16:37.621Z,100218.93
2019-03-20T21:19:36.723Z,100216.32
2019-03-20T21:22:46.624Z,100217.79
2019-03-20T21:25:16.043Z,100215.73
2019-03-20T21:28:21.896Z,100216.80
2019-03-20T21:31:00.211Z,100215.59
2019-03-20T21:33:49.693Z,100211.30
2019-03-20T21:37:04.277Z,100219.21
2019-03-20T21:39:32.566Z,100210.35
2019-03-20T21:42:44.724Z,100217.33
2019-03-20T21:45:39.107Z,100216.52
2019-03-20T21:48:14.806Z,100215.45
2019-03-20T21:51:09.932Z,100213.91
2019-03-20T21:54:18.521Z,100216.58
2019-03-20T21:57:33.445Z,100209.36
2019-03-20T22:00:42.338Z,100215.59
2019-03-20T22:03:09.400Z,100217.27
2019-03-20T22:06:14.055Z,100217.27
2019-03-20T22:08:43.226Z,100218.50
2019-03-20T22:11:56.770Z,100224.17
2019-03-20T22:14:23.909Z,100220.72
2019-03-20T22:17:50.277Z,100229.00
2019-03-20T22:20:43.154Z,100227.76
2019-03-20T22:23:54.874Z,100222.64
2019-03-20T22:26:56.150Z,100233.85
2019-03-20T22:29:24.715Z,100227.88
2019-03-20T22:32:41.553Z,100233.59
2019-03-20T22:35:53.821Z,100236.72
2019-03-20T22:39:04.112Z,100235.93
2019-03-20T22:42:08.055Z,100241.11
2019-03-20T22:44:38.799Z,100231.59
2019-03-20T22:47:41.070Z,100246.09
2019-03-20T22:50:33.482Z,100246.42
2019-03-20T22:53:29.392Z,100239.88
2019-03-20T22:56:26.092Z,100249.36
2019-03-20T22:58:53.298Z,100247.93
2019-03-20T23:01:48.027Z,100243.89
2019-03-20T23:04:22.071Z,100250.58
2019-03-20T23:06:49.178Z,100257.00
2019-03-20T23:09:16.248Z,100250.94
2019-03-20T23:11:45.430Z,100248.81
2019-03-20T23:14:12.542Z,100256.22
2019-03-20T23:16:39.666Z,100257.95
2019-03-20T23:19:06.900Z,100258.77
2019-03-20T23:21:33.986Z,100257.45
2019-03-20T23:24:03.319Z,100265.22
2019-03-20T23:26:30.522Z,100266.52
2019-03-20T23:28:57.799Z,100278.47
2019-03-20T23:31:30.905Z,100277.00
2019-03-20T23:33:58.340Z,100272.77
2019-03-20T23:36:26.046Z,100263.84
2019-03-20T23:38:53.120Z,100270.09
2019-03-20T23:41:20.171Z,100269.64
2019-03-20T23:43:52.836Z,100269.47
2019-03-20T23:46:16.487Z,100279.46
2019-03-20T23:48:50.104Z,100280.06
2019-03-20T23:51:27.483Z,100277.81
2019-03-20T23:53:55.485Z,100273.69
2019-03-20T23:56:23.782Z,100278.25
2019-03-20T23:58:51.217Z,100276.95
